Estación Meteorológica Peña el Pijo (Robertgarden) [ 02/03/23 04:25:41 CET ]

Fecha Hora Presion(HPa) Temp (°C) Humedad % Rocio (°C) Viento ( m/s) Direccion Lluvia 1Hora(mm) Lluvia 24H(mm) LLuvia Total(mm)
2010-Jun-16 01:01:19 1008.700 7.6 88 5.8         120.17
2010-Jun-16 02:01:13 1008.400 6.6 90 5.1         120.17
2010-Jun-16 03:03:17 1008.100 6.1 90 4.6         120.17
2010-Jun-16 04:01:10 1007.700 6.3 91 5.0         120.17
2010-Jun-16 05:01:14 1007.600 7.4 90 5.9         120.17
2010-Jun-16 06:01:18 1007.300 7.8 90 6.3         120.17
2010-Jun-16 07:01:22 1007.600 7.5 90 6.0         120.17
2010-Jun-16 08:01:12 1007.300 8.8 91 7.5         120.17
2010-Jun-16 09:01:13 1007.300 12.1 78 8.4         120.17
2010-Jun-16 10:01:16 1007.700 12.3 77 8.4         120.17
2010-Jun-16 11:01:11 1007.400 17.4 55 8.2         120.17
2010-Jun-16 12:01:11 1007.400 19.3 42 6.0         120.17
2010-Jun-16 13:01:16 1007.500 21.6 35 5.4         120.17
2010-Jun-16 14:01:13 1007.300 21.2 34 4.6         120.17
2010-Jun-16 15:01:18 1007.600 21.8 32 4.3         120.17
2010-Jun-16 16:01:19 1007.900 21.8 33 4.8 1.5 SSW     120.17
2010-Jun-16 17:01:13 1007.900 22.2 33 5.1         120.17
2010-Jun-16 18:01:17 1008.200 22.0 32 4.5         120.17
2010-Jun-16 19:01:13 1008.300 20.7 34 4.2         120.17
2010-Jun-16 20:01:12 1008.200 19.6 36 4.0         120.17
2010-Jun-16 21:01:16 1008.600 16.9 41 3.5         120.17
2010-Jun-16 22:01:14 1008.700 14.6 48 3.7         120.17
2010-Jun-16 23:01:14 1009.600 11.2 65 4.8         120.17

Temperatura Máxima:22°    Temperatura Mínima:
Presión Máxima:1009.600 Hpa    Presión Mínima:1007.300 Hpa


Volver